Rumney, New Hampshire
Current Conditions -  °F | °C
As of 11:15 AM on Friday 24 Oct 2014 (Local Time) from K1P1 Reporting Station
Drizzle Drizzle  
Wind Chill: 43°   Ceiling: 8500
Heat Index: 47°   Visibility: 10mi
Dew Point: 46°   Wind: 9mph
Humidity: 95%   Direction: 280°W
Pressure: 29.73"   Gusts: 16mph
Location:  43.81°N, 71.81°W
Report Text: K1P1 241515Z AUTO 28008G14KT 10SM -DZ SCT022 OVC085 09/08 A2973 RMK AO2 T00860079
Loading
Personal Weather Stations






























Interactive Weather Map New forecast layout! Learn more

10-Day Weather Forecast

Advertisements
Track Severe Weather on mobile